createdAt,value
2022-12-25T00:02:23.226Z,44.35
2022-12-25T00:04:51.708Z,44.08
2022-12-25T00:07:20.089Z,44.88
2022-12-25T00:09:48.557Z,44.08
2022-12-25T00:12:17.016Z,43.85
2022-12-25T00:14:47.032Z,44.35
2022-12-25T00:17:15.460Z,44.00
2022-12-25T00:19:43.953Z,43.95
2022-12-25T00:22:12.429Z,44.00
2022-12-25T00:24:41.116Z,43.33
2022-12-25T00:27:09.569Z,44.08
2022-12-25T00:29:38.226Z,43.65
2022-12-25T00:32:08.092Z,43.85
2022-12-25T00:34:36.786Z,42.47
2022-12-25T00:37:05.372Z,43.65
2022-12-25T00:39:33.843Z,43.67
2022-12-25T00:42:20.284Z,42.85
2022-12-25T00:44:49.886Z,42.47
2022-12-25T00:47:19.993Z,43.08
2022-12-25T00:49:48.438Z,42.75
2022-12-25T00:52:16.859Z,42.85
2022-12-25T00:54:45.342Z,42.50
2022-12-25T00:57:13.747Z,42.60
2022-12-25T00:59:42.170Z,42.58
2022-12-25T01:02:26.268Z,42.42
2022-12-25T01:04:58.096Z,41.47
2022-12-25T01:07:27.699Z,41.90
2022-12-25T01:10:13.478Z,42.42
2022-12-25T01:12:44.146Z,42.10
2022-12-25T01:15:14.218Z,42.28
2022-12-25T01:17:43.168Z,41.88
2022-12-25T01:20:16.423Z,42.60
2022-12-25T01:22:45.611Z,42.30
2022-12-25T01:25:14.715Z,41.90
2022-12-25T01:27:43.561Z,41.92
2022-12-25T01:30:13.249Z,42.28
2022-12-25T01:32:41.788Z,42.03
2022-12-25T01:35:12.675Z,42.25
2022-12-25T01:37:41.170Z,43.53
2022-12-25T01:40:10.902Z,42.40
2022-12-25T01:42:39.477Z,41.92
2022-12-25T01:45:36.502Z,42.58
2022-12-25T01:48:10.983Z,43.00
2022-12-25T01:50:43.696Z,42.42
2022-12-25T01:53:12.438Z,42.63
2022-12-25T01:55:43.364Z,42.22
2022-12-25T01:58:11.963Z,41.80
2022-12-25T02:00:40.505Z,47.47
2022-12-25T02:03:09.181Z,44.33
2022-12-25T02:05:37.839Z,42.90
2022-12-25T10:15:37.846Z,42.38
2022-12-25T10:23:41.949Z,43.47
2022-12-25T10:26:17.551Z,43.80
2022-12-25T10:31:25.758Z,42.30
2022-12-25T10:33:55.356Z,43.58
2022-12-25T10:36:27.853Z,44.10
2022-12-25T10:38:57.240Z,43.58
2022-12-25T10:41:50.350Z,43.35
2022-12-25T10:44:21.452Z,43.45
2022-12-25T10:46:51.390Z,43.85
2022-12-25T10:49:24.944Z,43.75
2022-12-25T10:51:54.788Z,43.47
2022-12-25T10:54:27.605Z,43.28
2022-12-25T10:57:02.372Z,43.28
2022-12-25T10:59:36.199Z,44.20
2022-12-25T11:02:15.835Z,44.53
2022-12-25T11:04:44.473Z,44.00
2022-12-25T11:07:24.409Z,43.10
2022-12-25T11:09:59.339Z,43.97
2022-12-25T11:12:37.495Z,43.03
2022-12-25T11:15:41.460Z,42.95
2022-12-25T11:18:22.408Z,43.70
2022-12-25T11:20:52.753Z,43.78
2022-12-25T11:23:24.450Z,46.35
2022-12-25T11:28:26.710Z,42.60
2022-12-25T11:31:01.775Z,43.53
2022-12-25T11:33:38.634Z,42.83
2022-12-25T11:36:18.414Z,43.40
2022-12-25T11:38:46.945Z,43.85
2022-12-25T11:41:20.700Z,43.42
2022-12-25T11:43:55.549Z,44.28
2022-12-25T11:46:31.296Z,44.08
2022-12-25T11:49:06.604Z,43.80
2022-12-25T11:51:42.035Z,44.45
2022-12-25T11:54:22.560Z,43.72
2022-12-25T11:56:52.205Z,43.25
2022-12-25T11:59:28.782Z,43.50
2022-12-25T12:02:04.627Z,43.03
2022-12-25T12:04:42.583Z,47.60
2022-12-25T12:07:22.820Z,44.17
2022-12-25T12:10:01.797Z,43.25
2022-12-25T12:12:37.633Z,43.47
2022-12-25T12:15:19.016Z,43.88
2022-12-25T12:17:48.988Z,44.45
2022-12-25T12:20:31.854Z,44.78
2022-12-25T12:23:01.716Z,44.00
2022-12-25T12:25:31.284Z,45.67
2022-12-25T12:28:05.584Z,44.30
2022-12-25T12:30:36.411Z,44.45
2022-12-25T12:33:08.338Z,44.40
2022-12-25T12:35:40.575Z,44.40
2022-12-25T12:38:16.092Z,44.05
2022-12-25T12:40:53.685Z,43.22
2022-12-25T12:43:33.117Z,43.95
2022-12-25T12:46:08.484Z,44.65
2022-12-25T12:48:45.165Z,43.97
2022-12-25T12:51:16.370Z,43.22
2022-12-25T12:53:44.937Z,44.65
2022-12-25T12:56:18.191Z,44.17
2022-12-25T12:58:50.956Z,43.78
2022-12-25T13:01:40.892Z,45.08
2022-12-25T13:04:49.603Z,44.45
2022-12-25T13:07:44.354Z,42.92
2022-12-25T13:10:26.589Z,43.30
2022-12-25T13:13:01.517Z,43.35
2022-12-25T13:15:33.832Z,44.90
2022-12-25T13:18:08.010Z,43.50
2022-12-25T13:20:48.124Z,44.45
2022-12-25T13:23:27.067Z,44.10
2022-12-25T13:25:57.210Z,43.58
2022-12-25T13:28:30.671Z,43.35
2022-12-25T13:31:08.582Z,43.58
2022-12-25T13:33:37.943Z,43.33
2022-12-25T13:36:12.479Z,42.63
2022-12-25T13:38:46.448Z,44.17
2022-12-25T13:41:38.062Z,43.25
2022-12-25T13:44:19.479Z,43.80
2022-12-25T13:46:48.702Z,43.00
2022-12-25T13:49:20.967Z,43.30
2022-12-25T13:51:51.964Z,43.45
2022-12-25T13:54:20.901Z,43.78
2022-12-25T13:56:52.436Z,43.22
2022-12-25T13:59:24.189Z,43.42
2022-12-25T14:04:25.150Z,42.67
2022-12-25T14:06:55.117Z,43.95
2022-12-25T14:09:24.490Z,43.08
2022-12-25T14:11:54.592Z,43.33
2022-12-25T14:14:25.932Z,42.47
2022-12-25T14:16:58.318Z,43.17
2022-12-25T14:19:29.816Z,43.13
2022-12-25T14:22:03.969Z,44.08
2022-12-25T14:24:35.049Z,43.42
2022-12-25T14:27:06.684Z,43.65
2022-12-25T14:29:41.099Z,43.63
2022-12-25T14:32:15.216Z,43.25
2022-12-25T14:34:46.301Z,42.75
2022-12-25T14:37:20.576Z,43.58
2022-12-25T14:39:58.283Z,43.03
2022-12-25T14:42:29.488Z,43.22
2022-12-25T14:45:03.347Z,43.53
2022-12-25T14:47:33.643Z,43.25
2022-12-25T14:50:02.087Z,43.97
2022-12-25T14:52:38.694Z,44.38
2022-12-25T14:55:19.114Z,43.83
2022-12-25T14:57:51.063Z,43.45
2022-12-25T15:00:25.543Z,43.42
2022-12-25T15:02:58.241Z,43.00
2022-12-25T15:05:32.248Z,43.72
2022-12-25T15:08:26.465Z,42.65
2022-12-25T15:11:00.627Z,44.15
2022-12-25T15:13:31.859Z,44.10
2022-12-25T15:16:04.748Z,43.42
2022-12-25T15:18:38.090Z,43.10
2022-12-25T15:21:07.139Z,43.22
2022-12-25T15:23:37.067Z,43.15
2022-12-25T15:26:05.618Z,43.75
2022-12-25T15:28:34.323Z,43.20
2022-12-25T15:31:02.781Z,43.30
2022-12-25T15:33:31.328Z,43.75
2022-12-25T15:35:59.744Z,43.10
2022-12-25T15:38:28.162Z,43.72
2022-12-25T15:40:58.052Z,43.53
2022-12-25T15:43:41.913Z,43.60
2022-12-25T15:46:11.394Z,42.90
2022-12-25T16:10:55.818Z,42.47
2022-12-25T16:13:25.682Z,48.38
2022-12-25T16:15:54.120Z,49.17
2022-12-25T16:18:23.928Z,49.67
2022-12-25T16:20:53.181Z,44.95
2022-12-25T16:23:21.833Z,43.88
2022-12-25T16:25:50.323Z,44.55
2022-12-25T16:28:18.777Z,43.53
2022-12-25T16:30:48.957Z,44.83
2022-12-25T16:33:17.420Z,44.63
2022-12-25T16:35:47.191Z,43.63
2022-12-25T16:38:15.591Z,44.00
2022-12-25T16:40:44.821Z,43.38
2022-12-25T16:43:15.362Z,44.03
2022-12-25T16:45:48.788Z,43.63
2022-12-25T16:48:17.182Z,44.25
2022-12-25T16:50:45.674Z,43.97
2022-12-25T16:53:14.070Z,44.30
2022-12-25T16:55:42.530Z,44.65
2022-12-25T16:58:10.899Z,44.22
2022-12-25T17:00:41.173Z,44.30
2022-12-25T17:03:14.224Z,45.83
2022-12-25T17:05:42.690Z,45.08
2022-12-25T17:08:11.111Z,44.40
2022-12-25T17:10:40.274Z,44.63
2022-12-25T17:13:08.705Z,45.13
2022-12-25T17:15:37.118Z,45.25
2022-12-25T17:18:05.756Z,45.70
2022-12-25T17:20:38.089Z,45.95
2022-12-25T17:23:06.705Z,46.20
2022-12-25T17:25:35.373Z,46.40
2022-12-25T17:28:03.763Z,46.17
2022-12-25T17:30:33.326Z,46.88
2022-12-25T17:33:01.735Z,46.63
2022-12-25T17:35:30.099Z,46.40
2022-12-25T17:40:29.428Z,45.65
2022-12-25T17:45:26.125Z,47.38
2022-12-25T17:47:57.532Z,46.28
2022-12-25T17:50:26.005Z,47.83
2022-12-25T17:52:54.492Z,47.88
2022-12-25T17:55:24.337Z,47.45
2022-12-25T18:00:21.825Z,46.78
2022-12-25T18:02:50.317Z,48.47
2022-12-25T18:05:19.084Z,47.38
2022-12-25T18:07:47.583Z,47.55
2022-12-25T18:10:16.147Z,46.63
2022-12-25T18:12:46.484Z,47.92
2022-12-25T18:15:14.866Z,47.10
2022-12-25T18:17:43.277Z,46.92
2022-12-25T18:20:12.749Z,46.97
2022-12-25T18:22:41.258Z,46.35
2022-12-25T18:25:10.726Z,49.80
2022-12-25T18:27:39.363Z,49.25
2022-12-25T18:30:11.274Z,47.53
2022-12-25T18:32:39.757Z,48.08
2022-12-25T18:35:09.504Z,47.15
2022-12-25T18:37:40.235Z,46.70
2022-12-25T18:40:10.530Z,46.45
2022-12-25T18:42:43.169Z,47.20
2022-12-25T18:45:15.600Z,46.45
2022-12-25T18:47:44.069Z,47.17
2022-12-25T18:50:13.751Z,47.00
2022-12-25T18:52:50.933Z,47.08
2022-12-25T18:55:21.344Z,46.38
2022-12-25T18:57:49.889Z,45.67
2022-12-25T19:00:20.835Z,52.53
2022-12-25T19:02:49.965Z,48.35
2022-12-25T19:05:18.880Z,46.55
2022-12-25T19:07:47.349Z,46.40
2022-12-25T19:10:15.787Z,45.90
2022-12-25T19:12:44.197Z,45.80
2022-12-25T19:15:13.344Z,45.13
2022-12-25T19:17:43.121Z,45.30
2022-12-25T19:20:13.284Z,44.85
2022-12-25T19:22:41.802Z,46.38
2022-12-25T19:25:11.016Z,44.97
2022-12-25T19:27:39.522Z,45.45
2022-12-25T19:30:10.006Z,44.75
2022-12-25T19:32:38.544Z,45.28
2022-12-25T19:35:09.397Z,45.35
2022-12-25T19:37:37.842Z,44.30
2022-12-25T19:40:07.527Z,44.60
2022-12-25T19:42:35.958Z,44.65
2022-12-25T19:45:04.847Z,45.92
2022-12-25T19:47:33.346Z,44.75
2022-12-25T19:50:03.279Z,44.45
2022-12-25T19:52:33.905Z,44.70
2022-12-25T19:55:02.349Z,44.85
2022-12-25T19:57:30.805Z,44.58
2022-12-25T19:59:59.256Z,44.15
2022-12-25T20:02:27.824Z,44.22
2022-12-25T20:04:56.632Z,44.58
2022-12-25T20:07:25.141Z,44.10
2022-12-25T20:09:55.034Z,44.17
2022-12-25T20:12:23.498Z,45.08
2022-12-25T20:14:51.887Z,44.92
2022-12-25T20:17:20.355Z,44.75
2022-12-25T20:19:48.815Z,43.50
2022-12-25T20:22:17.280Z,43.63
2022-12-25T20:24:47.815Z,43.75
2022-12-25T20:27:17.701Z,43.35
2022-12-25T20:29:46.161Z,44.33
2022-12-25T20:32:14.797Z,44.33
2022-12-25T20:34:43.324Z,43.35
2022-12-25T20:37:11.958Z,43.80
2022-12-25T20:39:40.674Z,43.72
2022-12-25T20:42:09.070Z,43.53
2022-12-25T20:47:07.239Z,43.28
2022-12-25T20:49:35.773Z,43.05
2022-12-25T20:52:05.832Z,44.33
2022-12-25T20:54:34.989Z,43.88
2022-12-25T20:57:03.540Z,43.05
2022-12-25T20:59:37.195Z,49.47
2022-12-25T21:02:08.167Z,50.05
2022-12-25T21:04:56.485Z,45.10
2022-12-25T21:07:25.014Z,44.50
2022-12-25T21:09:53.602Z,44.65
2022-12-25T21:12:22.063Z,44.35
2022-12-25T21:14:50.535Z,43.63
2022-12-25T21:17:20.591Z,44.00
2022-12-25T21:19:49.147Z,44.25
2022-12-25T21:22:17.632Z,43.88
2022-12-25T21:24:46.031Z,44.00
2022-12-25T21:27:14.593Z,43.60
2022-12-25T21:29:43.596Z,44.70
2022-12-25T21:32:29.364Z,45.15
2022-12-25T21:34:59.228Z,44.35
2022-12-25T21:37:27.806Z,43.80
2022-12-25T21:39:56.661Z,43.65
2022-12-25T21:42:25.848Z,43.72
2022-12-25T21:44:54.273Z,43.65
2022-12-25T21:47:22.760Z,44.30
2022-12-25T21:50:04.975Z,44.58
2022-12-25T21:52:37.039Z,44.08
2022-12-25T21:55:06.104Z,43.45
2022-12-25T21:57:34.544Z,43.72
2022-12-25T22:00:03.045Z,44.25
2022-12-25T22:02:31.817Z,46.60
2022-12-25T22:05:00.354Z,44.25
2022-12-25T22:07:27.820Z,44.15
2022-12-25T22:09:57.662Z,43.83
2022-12-25T22:12:43.782Z,43.47
2022-12-25T22:15:12.896Z,42.80
2022-12-25T22:18:01.116Z,42.78
2022-12-25T22:20:34.479Z,43.33
2022-12-25T22:23:03.451Z,43.25
2022-12-25T22:25:33.385Z,43.40
2022-12-25T22:28:01.839Z,42.97
2022-12-25T22:30:30.951Z,43.25
2022-12-25T22:32:59.417Z,43.00
2022-12-25T22:35:27.859Z,43.50
2022-12-25T22:37:56.740Z,43.50
2022-12-25T22:40:25.099Z,43.40
2022-12-25T22:42:57.239Z,48.50
2022-12-25T22:45:25.919Z,43.80
2022-12-25T22:47:54.384Z,43.67
2022-12-25T22:50:22.917Z,43.67
2022-12-25T22:52:51.616Z,43.80
2022-12-25T22:55:20.400Z,44.13
2022-12-25T22:57:50.440Z,43.72
2022-12-25T23:00:20.332Z,43.53
2022-12-25T23:02:49.071Z,43.70
2022-12-25T23:05:17.822Z,43.75
2022-12-25T23:07:46.354Z,44.00
2022-12-25T23:10:14.824Z,43.33
2022-12-25T23:13:00.829Z,43.45
2022-12-25T23:15:31.591Z,45.45
2022-12-25T23:18:17.340Z,43.80
2022-12-25T23:21:08.653Z,43.78
2022-12-25T23:23:54.404Z,44.28
2022-12-25T23:26:23.185Z,43.45
2022-12-25T23:29:08.828Z,43.40
2022-12-25T23:31:42.502Z,43.40
2022-12-25T23:34:11.821Z,42.92
2022-12-25T23:36:40.263Z,43.05
2022-12-25T23:39:10.310Z,42.78
2022-12-25T23:41:39.871Z,42.53
2022-12-25T23:44:08.662Z,43.35
2022-12-25T23:46:39.182Z,43.25
2022-12-25T23:49:08.217Z,42.63
2022-12-25T23:51:37.675Z,43.63
2022-12-25T23:54:06.945Z,43.30
2022-12-25T23:56:35.524Z,43.35
2022-12-25T23:59:03.962Z,42.90
